sensor_id;sensor_type;location;lat;lon;timestamp;P1;durP1;ratioP1;P2;durP2;ratioP2
24159;SDS011;62385;41.594;23.808;2023-11-22T00:14:43;0.80;;;0.73;;
24159;SDS011;62385;41.594;23.808;2023-11-22T00:17:09;0.97;;;0.93;;
24159;SDS011;62385;41.594;23.808;2023-11-22T00:46:11;2.93;;;1.77;;
24159;SDS011;62385;41.594;23.808;2023-11-22T00:49:44;3.17;;;1.97;;
24159;SDS011;62385;41.594;23.808;2023-11-22T01:00:40;1.07;;;0.97;;
24159;SDS011;62385;41.594;23.808;2023-11-22T01:12:20;1.40;;;1.10;;
24159;SDS011;62385;41.594;23.808;2023-11-22T01:22:51;1.37;;;1.07;;
24159;SDS011;62385;41.594;23.808;2023-11-22T06:33:59;4.10;;;3.00;;
24159;SDS011;62385;41.594;23.808;2023-11-22T06:36:38;10.10;;;3.90;;
24159;SDS011;62385;41.594;23.808;2023-11-22T06:39:13;7.83;;;5.60;;
24159;SDS011;62385;41.594;23.808;2023-11-22T06:41:40;11.23;;;6.93;;
24159;SDS011;62385;41.594;23.808;2023-11-22T06:44:07;12.50;;;6.40;;
24159;SDS011;62385;41.594;23.808;2023-11-22T06:46:33;19.23;;;12.47;;
24159;SDS011;62385;41.594;23.808;2023-11-22T06:49:08;9.57;;;6.30;;
24159;SDS011;62385;41.594;23.808;2023-11-22T06:51:50;8.33;;;5.60;;
24159;SDS011;62385;41.594;23.808;2023-11-22T06:54:18;7.20;;;4.60;;
24159;SDS011;62385;41.594;23.808;2023-11-22T06:57:14;9.83;;;5.07;;
24159;SDS011;62385;41.594;23.808;2023-11-22T06:59:57;10.60;;;5.57;;
24159;SDS011;62385;41.594;23.808;2023-11-22T07:02:31;7.70;;;4.30;;
24159;SDS011;62385;41.594;23.808;2023-11-22T07:05:04;12.10;;;6.20;;
24159;SDS011;62385;41.594;23.808;2023-11-22T07:07:37;12.53;;;8.20;;
24159;SDS011;62385;41.594;23.808;2023-11-22T07:10:03;10.33;;;5.83;;
24159;SDS011;62385;41.594;23.808;2023-11-22T07:12:33;13.33;;;6.03;;
24159;SDS011;62385;41.594;23.808;2023-11-22T07:15:02;9.07;;;6.70;;
24159;SDS011;62385;41.594;23.808;2023-11-22T07:17:30;10.90;;;5.57;;
24159;SDS011;62385;41.594;23.808;2023-11-22T07:19:58;7.13;;;5.63;;
24159;SDS011;62385;41.594;23.808;2023-11-22T07:22:26;8.70;;;5.23;;
24159;SDS011;62385;41.594;23.808;2023-11-22T07:24:52;9.17;;;3.77;;
24159;SDS011;62385;41.594;23.808;2023-11-22T07:27:19;6.90;;;3.50;;
24159;SDS011;62385;41.594;23.808;2023-11-22T07:29:46;6.93;;;4.17;;
24159;SDS011;62385;41.594;23.808;2023-11-22T07:32:12;7.23;;;4.90;;
24159;SDS011;62385;41.594;23.808;2023-11-22T07:34:39;5.60;;;3.93;;
24159;SDS011;62385;41.594;23.808;2023-11-22T07:37:08;9.07;;;4.73;;
24159;SDS011;62385;41.594;23.808;2023-11-22T07:39:37;5.00;;;3.07;;
24159;SDS011;62385;41.594;23.808;2023-11-22T07:42:04;14.73;;;4.33;;
24159;SDS011;62385;41.594;23.808;2023-11-22T07:44:33;6.67;;;4.27;;
24159;SDS011;62385;41.594;23.808;2023-11-22T07:47:01;17.47;;;10.17;;
24159;SDS011;62385;41.594;23.808;2023-11-22T07:49:27;11.33;;;6.43;;
24159;SDS011;62385;41.594;23.808;2023-11-22T07:51:54;21.27;;;8.60;;
24159;SDS011;62385;41.594;23.808;2023-11-22T07:54:21;9.87;;;5.17;;
24159;SDS011;62385;41.594;23.808;2023-11-22T07:56:48;8.03;;;5.23;;
24159;SDS011;62385;41.594;23.808;2023-11-22T07:59:14;4.80;;;3.27;;
24159;SDS011;62385;41.594;23.808;2023-11-22T08:01:44;11.13;;;6.20;;
24159;SDS011;62385;41.594;23.808;2023-11-22T08:04:10;11.53;;;5.23;;
24159;SDS011;62385;41.594;23.808;2023-11-22T08:06:36;10.30;;;7.07;;
24159;SDS011;62385;41.594;23.808;2023-11-22T08:09:02;10.23;;;7.10;;
24159;SDS011;62385;41.594;23.808;2023-11-22T08:11:30;8.43;;;4.87;;
24159;SDS011;62385;41.594;23.808;2023-11-22T08:13:57;6.23;;;3.93;;
24159;SDS011;62385;41.594;23.808;2023-11-22T08:16:24;10.07;;;5.53;;
24159;SDS011;62385;41.594;23.808;2023-11-22T08:18:53;7.00;;;4.20;;
24159;SDS011;62385;41.594;23.808;2023-11-22T08:21:19;11.80;;;6.80;;
24159;SDS011;62385;41.594;23.808;2023-11-22T08:23:48;8.87;;;5.73;;
24159;SDS011;62385;41.594;23.808;2023-11-22T08:26:14;8.70;;;5.17;;
24159;SDS011;62385;41.594;23.808;2023-11-22T08:28:43;13.13;;;6.53;;
24159;SDS011;62385;41.594;23.808;2023-11-22T08:31:12;14.37;;;8.80;;
24159;SDS011;62385;41.594;23.808;2023-11-22T08:33:42;17.10;;;9.90;;
24159;SDS011;62385;41.594;23.808;2023-11-22T08:36:09;11.13;;;7.53;;
24159;SDS011;62385;41.594;23.808;2023-11-22T08:38:35;18.37;;;12.03;;
24159;SDS011;62385;41.594;23.808;2023-11-22T08:41:01;20.77;;;10.57;;
24159;SDS011;62385;41.594;23.808;2023-11-22T08:43:28;19.07;;;11.13;;
24159;SDS011;62385;41.594;23.808;2023-11-22T08:45:54;17.10;;;11.67;;
24159;SDS011;62385;41.594;23.808;2023-11-22T08:48:23;39.05;;;16.58;;
24159;SDS011;62385;41.594;23.808;2023-11-22T08:50:52;32.27;;;14.13;;
24159;SDS011;62385;41.594;23.808;2023-11-22T08:53:21;26.03;;;13.57;;
24159;SDS011;62385;41.594;23.808;2023-11-22T09:06:58;8.10;;;7.17;;
24159;SDS011;62385;41.594;23.808;2023-11-22T09:11:08;6.87;;;3.93;;
24159;SDS011;62385;41.594;23.808;2023-11-22T09:13:21;14.10;;;6.07;;
24159;SDS011;62385;41.594;23.808;2023-11-22T09:39:31;2.80;;;2.27;;
24159;SDS011;62385;41.594;23.808;2023-11-22T11:29:50;4.33;;;3.53;;
24159;SDS011;62385;41.594;23.808;2023-11-22T11:32:36;7.82;;;4.43;;
24159;SDS011;62385;41.594;23.808;2023-11-22T11:35:03;9.57;;;4.00;;
24159;SDS011;62385;41.594;23.808;2023-11-22T11:37:32;7.13;;;3.80;;
24159;SDS011;62385;41.594;23.808;2023-11-22T11:40:01;8.98;;;3.95;;
24159;SDS011;62385;41.594;23.808;2023-11-22T11:42:48;8.85;;;3.45;;
24159;SDS011;62385;41.594;23.808;2023-11-22T11:45:24;4.57;;;2.78;;
24159;SDS011;62385;41.594;23.808;2023-11-22T11:47:57;6.13;;;3.05;;
24159;SDS011;62385;41.594;23.808;2023-11-22T11:50:23;5.47;;;2.88;;
24159;SDS011;62385;41.594;23.808;2023-11-22T11:52:48;6.07;;;2.25;;
24159;SDS011;62385;41.594;23.808;2023-11-22T11:55:14;3.63;;;3.15;;
24159;SDS011;62385;41.594;23.808;2023-11-22T11:57:40;12.63;;;4.00;;
24159;SDS011;62385;41.594;23.808;2023-11-22T12:00:07;9.95;;;4.75;;
24159;SDS011;62385;41.594;23.808;2023-11-22T12:02:37;4.72;;;3.42;;
24159;SDS011;62385;41.594;23.808;2023-11-22T12:05:03;5.63;;;2.60;;
24159;SDS011;62385;41.594;23.808;2023-11-22T12:07:37;6.60;;;3.08;;
24159;SDS011;62385;41.594;23.808;2023-11-22T12:10:03;7.32;;;3.75;;
24159;SDS011;62385;41.594;23.808;2023-11-22T12:12:31;9.70;;;4.15;;
24159;SDS011;62385;41.594;23.808;2023-11-22T12:14:58;10.70;;;4.57;;
24159;SDS011;62385;41.594;23.808;2023-11-22T12:17:25;6.55;;;3.88;;
24159;SDS011;62385;41.594;23.808;2023-11-22T12:19:52;6.28;;;3.72;;
24159;SDS011;62385;41.594;23.808;2023-11-22T12:22:18;9.13;;;5.20;;
24159;SDS011;62385;41.594;23.808;2023-11-22T12:24:45;6.03;;;4.38;;
24159;SDS011;62385;41.594;23.808;2023-11-22T12:27:11;11.32;;;6.35;;
24159;SDS011;62385;41.594;23.808;2023-11-22T12:29:37;18.80;;;9.75;;
24159;SDS011;62385;41.594;23.808;2023-11-22T12:32:03;31.25;;;7.43;;
24159;SDS011;62385;41.594;23.808;2023-11-22T12:34:28;11.38;;;5.28;;
24159;SDS011;62385;41.594;23.808;2023-11-22T12:36:56;14.02;;;6.53;;
24159;SDS011;62385;41.594;23.808;2023-11-22T12:39:21;7.35;;;4.10;;
24159;SDS011;62385;41.594;23.808;2023-11-22T12:41:48;11.57;;;5.68;;
24159;SDS011;62385;41.594;23.808;2023-11-22T12:44:18;10.77;;;6.00;;
24159;SDS011;62385;41.594;23.808;2023-11-22T12:46:48;7.30;;;4.28;;
24159;SDS011;62385;41.594;23.808;2023-11-22T12:49:18;22.33;;;7.00;;
24159;SDS011;62385;41.594;23.808;2023-11-22T12:51:50;16.83;;;7.50;;
24159;SDS011;62385;41.594;23.808;2023-11-22T12:54:20;12.75;;;5.70;;
24159;SDS011;62385;41.594;23.808;2023-11-22T12:56:49;13.13;;;5.30;;
24159;SDS011;62385;41.594;23.808;2023-11-22T12:59:23;4.57;;;3.55;;
24159;SDS011;62385;41.594;23.808;2023-11-22T13:01:49;6.32;;;4.13;;
24159;SDS011;62385;41.594;23.808;2023-11-22T13:04:17;12.73;;;4.15;;
24159;SDS011;62385;41.594;23.808;2023-11-22T13:06:43;9.32;;;4.68;;
24159;SDS011;62385;41.594;23.808;2023-11-22T13:09:09;4.75;;;3.10;;
24159;SDS011;62385;41.594;23.808;2023-11-22T13:11:42;5.78;;;4.18;;
24159;SDS011;62385;41.594;23.808;2023-11-22T13:14:08;9.18;;;4.93;;
24159;SDS011;62385;41.594;23.808;2023-11-22T13:16:34;5.90;;;4.63;;
24159;SDS011;62385;41.594;23.808;2023-11-22T13:19:02;9.43;;;5.32;;
24159;SDS011;62385;41.594;23.808;2023-11-22T13:21:28;5.60;;;3.90;;
24159;SDS011;62385;41.594;23.808;2023-11-22T13:23:53;8.25;;;3.88;;
24159;SDS011;62385;41.594;23.808;2023-11-22T13:26:20;9.10;;;5.03;;
24159;SDS011;62385;41.594;23.808;2023-11-22T13:28:46;7.18;;;4.18;;
24159;SDS011;62385;41.594;23.808;2023-11-22T13:31:12;11.75;;;5.53;;
24159;SDS011;62385;41.594;23.808;2023-11-22T13:33:38;5.80;;;4.65;;
24159;SDS011;62385;41.594;23.808;2023-11-22T13:36:04;7.22;;;4.30;;
24159;SDS011;62385;41.594;23.808;2023-11-22T13:38:30;6.65;;;3.92;;
24159;SDS011;62385;41.594;23.808;2023-11-22T13:40:56;5.82;;;4.03;;
24159;SDS011;62385;41.594;23.808;2023-11-22T13:43:22;6.32;;;3.13;;
24159;SDS011;62385;41.594;23.808;2023-11-22T13:45:48;4.55;;;3.40;;
24159;SDS011;62385;41.594;23.808;2023-11-22T13:48:15;11.30;;;5.22;;
24159;SDS011;62385;41.594;23.808;2023-11-22T13:50:41;5.88;;;3.75;;
24159;SDS011;62385;41.594;23.808;2023-11-22T13:53:07;5.50;;;3.83;;
24159;SDS011;62385;41.594;23.808;2023-11-22T13:55:36;3.58;;;2.95;;
24159;SDS011;62385;41.594;23.808;2023-11-22T13:58:02;6.43;;;4.60;;
24159;SDS011;62385;41.594;23.808;2023-11-22T14:00:30;3.90;;;2.80;;
24159;SDS011;62385;41.594;23.808;2023-11-22T14:03:00;6.20;;;3.85;;
24159;SDS011;62385;41.594;23.808;2023-11-22T14:05:31;6.57;;;3.50;;
24159;SDS011;62385;41.594;23.808;2023-11-22T14:07:58;7.78;;;3.50;;
24159;SDS011;62385;41.594;23.808;2023-11-22T14:10:24;9.57;;;3.53;;
24159;SDS011;62385;41.594;23.808;2023-11-22T14:12:50;7.65;;;4.93;;
24159;SDS011;62385;41.594;23.808;2023-11-22T14:15:16;4.35;;;3.45;;
24159;SDS011;62385;41.594;23.808;2023-11-22T14:17:42;6.07;;;3.50;;
24159;SDS011;62385;41.594;23.808;2023-11-22T14:20:11;6.60;;;4.35;;
24159;SDS011;62385;41.594;23.808;2023-11-22T14:22:37;5.38;;;3.22;;
24159;SDS011;62385;41.594;23.808;2023-11-22T14:25:04;5.15;;;3.45;;
24159;SDS011;62385;41.594;23.808;2023-11-22T14:27:40;9.65;;;4.85;;
24159;SDS011;62385;41.594;23.808;2023-11-22T14:30:07;9.60;;;4.82;;
24159;SDS011;62385;41.594;23.808;2023-11-22T14:32:35;5.65;;;3.58;;
24159;SDS011;62385;41.594;23.808;2023-11-22T14:35:02;9.55;;;4.93;;
24159;SDS011;62385;41.594;23.808;2023-11-22T14:37:28;9.30;;;4.25;;
24159;SDS011;62385;41.594;23.808;2023-11-22T14:39:55;5.82;;;3.75;;
24159;SDS011;62385;41.594;23.808;2023-11-22T14:42:20;24.75;;;10.05;;
24159;SDS011;62385;41.594;23.808;2023-11-22T14:44:46;23.15;;;11.95;;
24159;SDS011;62385;41.594;23.808;2023-11-22T14:47:12;24.25;;;8.82;;
24159;SDS011;62385;41.594;23.808;2023-11-22T14:49:44;22.40;;;8.40;;
24159;SDS011;62385;41.594;23.808;2023-11-22T14:52:13;10.88;;;5.90;;
24159;SDS011;62385;41.594;23.808;2023-11-22T16:01:32;15.52;;;8.80;;
24159;SDS011;62385;41.594;23.808;2023-11-22T16:16:20;19.10;;;11.65;;
24159;SDS011;62385;41.594;23.808;2023-11-22T16:20:04;22.42;;;10.88;;
24159;SDS011;62385;41.594;23.808;2023-11-22T17:08:27;27.23;;;12.02;;
24159;SDS011;62385;41.594;23.808;2023-11-22T17:47:11;15.25;;;8.88;;
24159;SDS011;62385;41.594;23.808;2023-11-22T18:03:11;5.93;;;5.05;;
24159;SDS011;62385;41.594;23.808;2023-11-22T18:06:28;7.97;;;5.80;;
24159;SDS011;62385;41.594;23.808;2023-11-22T18:09:52;13.50;;;7.28;;
24159;SDS011;62385;41.594;23.808;2023-11-22T18:17:14;10.75;;;8.05;;
24159;SDS011;62385;41.594;23.808;2023-11-22T18:24:33;18.45;;;7.90;;
24159;SDS011;62385;41.594;23.808;2023-11-22T18:26:59;17.48;;;9.57;;
24159;SDS011;62385;41.594;23.808;2023-11-22T18:29:28;17.02;;;9.02;;
24159;SDS011;62385;41.594;23.808;2023-11-22T18:32:40;18.33;;;10.20;;
24159;SDS011;62385;41.594;23.808;2023-11-22T18:35:11;11.27;;;6.90;;
24159;SDS011;62385;41.594;23.808;2023-11-22T18:37:39;11.68;;;5.22;;
24159;SDS011;62385;41.594;23.808;2023-11-22T18:40:14;15.80;;;8.03;;
24159;SDS011;62385;41.594;23.808;2023-11-22T18:42:51;17.10;;;9.30;;
24159;SDS011;62385;41.594;23.808;2023-11-22T18:45:53;19.45;;;10.27;;
24159;SDS011;62385;41.594;23.808;2023-11-22T19:20:32;12.73;;;8.00;;
24159;SDS011;62385;41.594;23.808;2023-11-22T20:05:29;33.85;;;15.65;;
24159;SDS011;62385;41.594;23.808;2023-11-22T21:09:49;41.58;;;15.80;;
24159;SDS011;62385;41.594;23.808;2023-11-22T21:12:32;33.63;;;12.02;;
24159;SDS011;62385;41.594;23.808;2023-11-22T21:14:58;34.53;;;15.80;;
24159;SDS011;62385;41.594;23.808;2023-11-22T21:17:24;34.33;;;13.98;;
24159;SDS011;62385;41.594;23.808;2023-11-22T21:19:52;29.70;;;14.30;;
24159;SDS011;62385;41.594;23.808;2023-11-22T21:22:18;29.67;;;12.03;;
24159;SDS011;62385;41.594;23.808;2023-11-22T21:24:43;22.17;;;10.55;;
24159;SDS011;62385;41.594;23.808;2023-11-22T21:27:09;13.97;;;10.80;;
24159;SDS011;62385;41.594;23.808;2023-11-22T21:29:35;28.53;;;11.43;;
24159;SDS011;62385;41.594;23.808;2023-11-22T21:32:03;29.17;;;12.17;;
24159;SDS011;62385;41.594;23.808;2023-11-22T21:34:29;15.10;;;8.07;;
24159;SDS011;62385;41.594;23.808;2023-11-22T21:36:55;10.87;;;8.87;;
24159;SDS011;62385;41.594;23.808;2023-11-22T21:39:21;15.03;;;8.60;;
24159;SDS011;62385;41.594;23.808;2023-11-22T21:41:54;13.43;;;7.77;;
24159;SDS011;62385;41.594;23.808;2023-11-22T21:44:26;16.67;;;10.53;;
24159;SDS011;62385;41.594;23.808;2023-11-22T21:47:23;17.97;;;9.90;;
24159;SDS011;62385;41.594;23.808;2023-11-22T21:50:19;17.67;;;7.32;;
24159;SDS011;62385;41.594;23.808;2023-11-22T21:53:03;18.43;;;10.23;;
24159;SDS011;62385;41.594;23.808;2023-11-22T21:55:32;27.83;;;14.00;;
24159;SDS011;62385;41.594;23.808;2023-11-22T21:58:51;28.10;;;15.03;;
24159;SDS011;62385;41.594;23.808;2023-11-22T22:01:28;25.23;;;11.67;;
24159;SDS011;62385;41.594;23.808;2023-11-22T22:04:06;17.50;;;9.63;;
24159;SDS011;62385;41.594;23.808;2023-11-22T22:06:43;13.85;;;10.23;;
24159;SDS011;62385;41.594;23.808;2023-11-22T22:09:18;19.37;;;9.87;;
24159;SDS011;62385;41.594;23.808;2023-11-22T22:11:50;12.07;;;8.13;;
24159;SDS011;62385;41.594;23.808;2023-11-22T22:14:19;12.57;;;8.77;;
24159;SDS011;62385;41.594;23.808;2023-11-22T22:16:45;20.02;;;11.45;;
24159;SDS011;62385;41.594;23.808;2023-11-22T22:19:12;19.30;;;9.83;;
24159;SDS011;62385;41.594;23.808;2023-11-22T22:21:38;28.85;;;9.27;;
24159;SDS011;62385;41.594;23.808;2023-11-22T22:27:45;12.60;;;8.47;;
24159;SDS011;62385;41.594;23.808;2023-11-22T23:30:43;11.93;;;6.57;;
24159;SDS011;62385;41.594;23.808;2023-11-22T23:34:43;18.43;;;7.33;;
